createdAt,value
2024-03-15T00:01:00.104Z,100530.22
2024-03-15T00:03:32.886Z,100533.00
2024-03-15T00:06:06.294Z,100538.63
2024-03-15T00:08:40.711Z,100536.25
2024-03-15T00:11:13.659Z,100527.03
2024-03-15T00:13:46.874Z,100526.00
2024-03-15T00:16:20.258Z,100519.56
2024-03-15T00:18:54.895Z,100523.59
2024-03-15T00:21:27.798Z,100538.34
2024-03-15T00:24:00.925Z,100526.81
2024-03-15T00:26:35.029Z,100527.91
2024-03-15T00:29:07.827Z,100530.09
2024-03-15T00:31:41.652Z,100535.00
2024-03-15T00:34:14.675Z,100530.81
2024-03-15T00:36:48.661Z,100527.13
2024-03-15T00:39:22.480Z,100527.31
2024-03-15T00:41:56.257Z,100529.50
2024-03-15T00:44:29.108Z,100527.81
2024-03-15T00:47:01.872Z,100530.16
2024-03-15T00:49:35.743Z,100525.72
2024-03-15T00:52:08.692Z,100526.91
2024-03-15T00:54:41.569Z,100517.78
2024-03-15T00:57:15.125Z,100515.91
2024-03-15T00:59:48.140Z,100512.34
2024-03-15T01:02:21.252Z,100509.56
2024-03-15T01:04:54.163Z,100511.56
2024-03-15T01:07:27.731Z,100519.56
2024-03-15T01:10:00.698Z,100510.53
2024-03-15T01:12:35.436Z,100510.06
2024-03-15T01:15:08.605Z,100507.50
2024-03-15T01:17:41.801Z,100509.81
2024-03-15T01:20:15.781Z,100512.97
2024-03-15T01:22:48.811Z,100517.19
2024-03-15T01:25:21.572Z,100512.94
2024-03-15T01:27:54.415Z,100506.59
2024-03-15T01:30:27.310Z,100508.47
2024-03-15T01:33:00.122Z,100503.38
2024-03-15T01:35:34.254Z,100508.47
2024-03-15T01:38:07.388Z,100503.06
2024-03-15T01:40:40.229Z,100499.47
2024-03-15T01:43:16.153Z,100496.28
2024-03-15T01:45:49.770Z,100495.13
2024-03-15T01:48:24.052Z,100492.22
2024-03-15T01:50:57.031Z,100496.16
2024-03-15T01:53:31.187Z,100500.63
2024-03-15T01:56:04.570Z,100491.94
2024-03-15T01:58:38.493Z,100484.72
2024-03-15T02:01:12.747Z,100482.25
2024-03-15T02:03:47.587Z,100491.81
2024-03-15T02:06:22.799Z,100494.28
2024-03-15T02:08:57.042Z,100483.28
2024-03-15T02:11:30.217Z,100493.97
2024-03-15T02:14:02.967Z,100478.50
2024-03-15T02:16:35.712Z,100483.28
2024-03-15T02:19:08.787Z,100477.78
2024-03-15T02:21:41.502Z,100487.44
2024-03-15T02:24:14.279Z,100489.56
2024-03-15T02:26:47.190Z,100486.84
2024-03-15T02:29:20.896Z,100478.13
2024-03-15T02:31:54.155Z,100480.81
2024-03-15T02:34:27.299Z,100482.06
2024-03-15T02:37:01.216Z,100484.06
2024-03-15T02:39:35.579Z,100491.25
2024-03-15T02:42:08.528Z,100481.94
2024-03-15T02:44:41.604Z,100485.41
2024-03-15T02:47:14.370Z,100483.47
2024-03-15T02:49:47.268Z,100485.03
2024-03-15T02:52:20.098Z,100488.63
2024-03-15T02:54:52.869Z,100479.69
2024-03-15T02:57:26.281Z,100483.84
2024-03-15T02:59:59.698Z,100486.38
2024-03-15T03:02:32.614Z,100484.47
2024-03-15T03:05:08.299Z,100490.59
2024-03-15T03:07:41.195Z,100485.25
2024-03-15T03:10:14.072Z,100478.94
2024-03-15T03:12:46.969Z,100484.91
2024-03-15T03:15:20.361Z,100482.28
2024-03-15T03:17:53.169Z,100488.22
2024-03-15T03:20:26.536Z,100483.34
2024-03-15T03:22:59.288Z,100494.38
2024-03-15T03:25:34.562Z,100483.59
2024-03-15T03:28:07.299Z,100487.25
2024-03-15T03:30:40.367Z,100487.59
2024-03-15T03:33:14.235Z,100480.81
2024-03-15T03:35:47.542Z,100480.50
2024-03-15T03:38:22.961Z,100485.81
2024-03-15T03:40:55.715Z,100479.66
2024-03-15T03:43:28.947Z,100483.66
2024-03-15T03:46:02.081Z,100481.28
2024-03-15T03:48:35.636Z,100494.88
2024-03-15T03:51:08.597Z,100484.53
2024-03-15T03:53:42.348Z,100484.97
2024-03-15T03:56:15.527Z,100494.09
2024-03-15T03:58:49.808Z,100495.66
2024-03-15T04:01:22.651Z,100492.88
2024-03-15T04:03:55.536Z,100500.63
2024-03-15T04:06:29.312Z,100500.09
2024-03-15T04:09:02.882Z,100494.56
2024-03-15T04:11:35.720Z,100494.72
2024-03-15T04:14:09.703Z,100491.84
2024-03-15T04:16:44.753Z,100498.63
2024-03-15T04:19:17.563Z,100502.97
2024-03-15T04:21:50.332Z,100504.97
2024-03-15T04:24:23.687Z,100496.19
2024-03-15T04:26:56.861Z,100490.63
2024-03-15T04:29:31.398Z,100497.41
2024-03-15T04:32:04.295Z,100497.75
2024-03-15T04:34:38.480Z,100502.19
2024-03-15T04:37:11.827Z,100498.63
2024-03-15T04:39:44.741Z,100496.16
2024-03-15T04:42:17.638Z,100493.38
2024-03-15T04:44:50.483Z,100488.28
2024-03-15T04:47:24.417Z,100490.28
2024-03-15T04:50:00.818Z,100493.63
2024-03-15T04:52:34.304Z,100497.94
2024-03-15T04:55:07.282Z,100496.03
2024-03-15T04:57:41.654Z,100485.28
2024-03-15T05:00:20.709Z,100490.84
2024-03-15T05:02:58.941Z,100488.84
2024-03-15T05:05:32.915Z,100497.16
2024-03-15T05:08:07.882Z,100496.81
2024-03-15T05:10:40.937Z,100498.38
2024-03-15T05:13:13.863Z,100500.88
2024-03-15T05:15:46.672Z,100496.19
2024-03-15T05:18:20.372Z,100496.28
2024-03-15T05:20:54.712Z,100493.97
2024-03-15T05:23:27.405Z,100493.44
2024-03-15T05:26:00.138Z,100491.00
2024-03-15T05:28:33.647Z,100496.91
2024-03-15T05:31:08.344Z,100493.25
2024-03-15T05:33:41.872Z,100491.00
2024-03-15T05:36:14.664Z,100481.53
2024-03-15T05:38:48.361Z,100488.78
2024-03-15T05:41:21.127Z,100486.03
2024-03-15T05:43:54.152Z,100496.41
2024-03-15T05:46:26.893Z,100493.38
2024-03-15T05:48:59.928Z,100491.69
2024-03-15T05:51:33.382Z,100504.47
2024-03-15T05:54:06.186Z,100498.13
2024-03-15T05:56:39.357Z,100499.44
2024-03-15T05:59:13.713Z,100496.03
2024-03-15T06:01:46.430Z,100500.81
2024-03-15T06:04:19.373Z,100495.69
2024-03-15T06:06:52.387Z,100507.31
2024-03-15T06:09:25.959Z,100496.66
2024-03-15T06:11:58.974Z,100492.94
2024-03-15T06:14:34.247Z,100501.97
2024-03-15T06:17:08.663Z,100495.09
2024-03-15T06:19:41.504Z,100499.69
2024-03-15T06:22:14.709Z,100509.22
2024-03-15T06:24:47.735Z,100502.13
2024-03-15T06:27:21.689Z,100507.34
2024-03-15T06:29:56.529Z,100497.88
2024-03-15T06:32:30.397Z,100504.28
2024-03-15T06:35:18.245Z,100505.84
2024-03-15T06:37:55.560Z,100510.88
2024-03-15T06:40:43.938Z,100517.31
2024-03-15T06:43:36.595Z,100516.56
2024-03-15T06:46:21.571Z,100519.84
2024-03-15T06:48:58.372Z,100519.31
2024-03-15T06:51:48.980Z,100522.19
2024-03-15T06:54:21.881Z,100520.53
2024-03-15T06:56:57.121Z,100517.94
2024-03-15T06:59:30.027Z,100517.59
2024-03-15T07:02:03.479Z,100527.84
2024-03-15T07:04:36.431Z,100531.84
2024-03-15T07:07:09.381Z,100538.25
2024-03-15T07:09:43.004Z,100524.00
2024-03-15T07:12:16.650Z,100541.13
2024-03-15T07:14:54.073Z,100543.78
2024-03-15T07:17:27.689Z,100529.91
2024-03-15T07:20:01.694Z,100537.59
2024-03-15T07:22:34.582Z,100536.84
2024-03-15T07:25:08.249Z,100541.19
2024-03-15T07:27:42.085Z,100542.38
2024-03-15T07:30:15.110Z,100546.06
2024-03-15T07:32:48.029Z,100531.28
2024-03-15T07:35:21.091Z,100544.31
2024-03-15T07:37:55.122Z,100543.09
2024-03-15T07:40:27.855Z,100540.66
2024-03-15T07:43:01.172Z,100540.31
2024-03-15T07:45:34.938Z,100549.44
2024-03-15T07:48:08.666Z,100534.31
2024-03-15T07:50:42.561Z,100535.38
2024-03-15T07:53:16.377Z,100532.53
2024-03-15T07:55:49.218Z,100540.41
2024-03-15T07:58:22.261Z,100536.31
2024-03-15T08:00:55.237Z,100550.03
2024-03-15T08:03:28.255Z,100554.72
2024-03-15T08:06:02.612Z,100546.84
2024-03-15T08:08:36.421Z,100544.13
2024-03-15T08:11:09.488Z,100559.94
2024-03-15T08:13:42.850Z,100556.28
2024-03-15T08:16:24.698Z,100551.41
2024-03-15T08:18:57.744Z,100542.53
2024-03-15T08:21:30.896Z,100554.69
2024-03-15T08:24:05.631Z,100553.78
2024-03-15T08:26:40.973Z,100550.16
2024-03-15T08:29:14.554Z,100559.53
2024-03-15T08:31:48.756Z,100582.38
2024-03-15T08:34:23.140Z,100569.50
2024-03-15T08:36:57.897Z,100567.16
2024-03-15T08:39:31.172Z,100570.41
2024-03-15T08:42:04.029Z,100571.19
2024-03-15T08:44:36.998Z,100573.06
2024-03-15T08:47:10.198Z,100573.50
2024-03-15T08:49:43.321Z,100572.66
2024-03-15T08:52:16.974Z,100578.75
2024-03-15T08:54:50.075Z,100569.16
2024-03-15T08:57:24.194Z,100584.06
2024-03-15T08:59:58.272Z,100578.69
2024-03-15T09:02:31.067Z,100574.78
2024-03-15T09:05:07.460Z,100582.75
2024-03-15T09:07:40.474Z,100572.44
2024-03-15T09:10:16.740Z,100572.78
2024-03-15T09:12:49.556Z,100575.22
2024-03-15T09:15:23.524Z,100557.13
2024-03-15T09:18:00.073Z,100570.84
2024-03-15T09:20:36.954Z,100566.78
2024-03-15T09:23:12.416Z,100574.66
2024-03-15T09:25:45.765Z,100580.16
2024-03-15T09:28:19.796Z,100583.19
2024-03-15T09:31:04.019Z,100581.59
2024-03-15T09:33:44.786Z,100574.22
2024-03-15T09:36:19.701Z,100581.59
2024-03-15T09:38:55.246Z,100581.59
2024-03-15T09:41:28.107Z,100582.06
2024-03-15T09:44:01.026Z,100575.19
2024-03-15T09:46:34.164Z,100576.22
2024-03-15T09:49:07.148Z,100576.53
2024-03-15T09:51:41.434Z,100573.25
2024-03-15T09:54:14.567Z,100571.84
2024-03-15T09:56:48.495Z,100575.38
2024-03-15T09:59:22.530Z,100577.63
2024-03-15T10:01:55.842Z,100575.66
2024-03-15T10:04:28.597Z,100578.28
2024-03-15T10:07:02.976Z,100572.72
2024-03-15T10:09:38.824Z,100580.75
2024-03-15T10:12:11.830Z,100565.94
2024-03-15T10:14:44.593Z,100587.34
2024-03-15T10:17:17.344Z,100577.41
2024-03-15T10:19:50.372Z,100574.94
2024-03-15T10:22:23.094Z,100580.81
2024-03-15T10:24:55.925Z,100570.88
2024-03-15T10:27:29.034Z,100579.38
2024-03-15T10:30:02.415Z,100578.41
2024-03-15T10:32:35.233Z,100590.50
2024-03-15T10:35:08.112Z,100588.72
2024-03-15T10:37:41.789Z,100586.38
2024-03-15T10:40:14.810Z,100587.75
2024-03-15T10:42:48.761Z,100586.53
2024-03-15T10:45:21.770Z,100586.09
2024-03-15T10:47:55.485Z,100578.53
2024-03-15T10:50:28.619Z,100588.88
2024-03-15T10:53:02.520Z,100587.22
2024-03-15T10:55:35.388Z,100589.81
2024-03-15T10:58:09.427Z,100600.06
2024-03-15T11:00:42.406Z,100588.16
2024-03-15T11:03:16.441Z,100595.72
2024-03-15T11:05:50.513Z,100571.56
2024-03-15T11:08:23.772Z,100577.56
2024-03-15T11:10:56.876Z,100589.34
2024-03-15T11:13:33.394Z,100581.06
2024-03-15T11:16:19.557Z,100589.38
2024-03-15T11:18:53.803Z,100584.16
2024-03-15T11:21:26.707Z,100590.50
2024-03-15T11:24:07.678Z,100590.41
2024-03-15T11:26:40.475Z,100587.56
2024-03-15T11:29:18.058Z,100593.50
2024-03-15T11:31:51.162Z,100586.03
2024-03-15T11:34:24.287Z,100597.53
2024-03-15T11:36:57.269Z,100590.00
2024-03-15T11:39:30.100Z,100591.84
2024-03-15T11:42:03.443Z,100594.66
2024-03-15T11:44:36.742Z,100606.31
2024-03-15T11:47:09.873Z,100602.22
2024-03-15T11:49:42.568Z,100600.56
2024-03-15T11:52:15.454Z,100606.81
2024-03-15T11:54:53.095Z,100611.81
2024-03-15T11:57:27.586Z,100606.56
2024-03-15T12:00:00.489Z,100606.16
2024-03-15T12:02:33.225Z,100610.38
2024-03-15T12:05:06.594Z,100608.59
2024-03-15T12:07:39.558Z,100607.03
2024-03-15T12:10:14.924Z,100603.78
2024-03-15T12:12:48.135Z,100602.34
2024-03-15T12:15:30.452Z,100606.03
2024-03-15T12:18:03.895Z,100600.00
2024-03-15T12:20:37.578Z,100594.88
2024-03-15T12:23:10.385Z,100586.66
2024-03-15T12:25:43.154Z,100599.44
2024-03-15T12:28:16.238Z,100597.06
2024-03-15T12:30:50.238Z,100593.66
2024-03-15T12:33:23.625Z,100596.59
2024-03-15T12:35:59.228Z,100587.00
2024-03-15T12:38:32.224Z,100593.91
2024-03-15T12:41:05.496Z,100589.44
2024-03-15T12:43:39.983Z,100593.25
2024-03-15T12:46:12.892Z,100591.91
2024-03-15T12:48:45.746Z,100597.16
2024-03-15T12:51:18.710Z,100590.00
2024-03-15T12:53:51.675Z,100588.22
2024-03-15T12:56:24.888Z,100576.72
2024-03-15T12:58:58.029Z,100601.97
2024-03-15T13:01:32.492Z,100594.16
2024-03-15T13:04:06.037Z,100599.25
2024-03-15T13:06:39.601Z,100583.44
2024-03-15T13:09:59.770Z,100593.47
2024-03-15T13:13:15.398Z,100591.47
2024-03-15T13:15:49.285Z,100595.41
2024-03-15T13:18:23.012Z,100585.16
2024-03-15T13:20:56.913Z,100585.03
2024-03-15T13:23:30.049Z,100583.75
2024-03-15T13:26:03.488Z,100584.44
2024-03-15T13:28:36.628Z,100586.06
2024-03-15T13:31:10.068Z,100599.94
2024-03-15T13:33:43.913Z,100573.47
2024-03-15T13:36:16.958Z,100578.38
2024-03-15T13:38:50.173Z,100578.66
2024-03-15T13:41:25.734Z,100581.56
2024-03-15T13:44:00.325Z,100570.00
2024-03-15T13:46:34.012Z,100575.66
2024-03-15T13:49:11.722Z,100557.56
2024-03-15T13:51:44.823Z,100559.31
2024-03-15T13:54:17.824Z,100548.16
2024-03-15T13:56:51.974Z,100562.41
2024-03-15T13:59:29.548Z,100570.47
2024-03-15T14:02:02.542Z,100562.94
2024-03-15T14:04:35.613Z,100565.72
2024-03-15T14:07:08.927Z,100577.44
2024-03-15T14:09:42.215Z,100576.44
2024-03-15T14:12:15.164Z,100574.88
2024-03-15T14:14:48.213Z,100567.22
2024-03-15T14:17:21.476Z,100571.50
2024-03-15T14:19:54.887Z,100580.25
2024-03-15T14:22:27.922Z,100568.50
2024-03-15T14:25:01.535Z,100571.16
2024-03-15T14:27:34.542Z,100574.63
2024-03-15T14:30:10.920Z,100572.78
2024-03-15T14:32:44.758Z,100567.47
2024-03-15T14:35:18.875Z,100564.47
2024-03-15T14:37:51.991Z,100563.03
2024-03-15T14:40:26.258Z,100562.91
2024-03-15T14:42:59.386Z,100557.44
2024-03-15T14:45:34.678Z,100565.75
2024-03-15T14:48:14.610Z,100562.63
2024-03-15T14:50:51.972Z,100563.03
2024-03-15T14:53:25.144Z,100557.94
2024-03-15T14:55:58.366Z,100558.97
2024-03-15T14:58:31.502Z,100556.78
2024-03-15T15:01:04.702Z,100561.19
2024-03-15T15:03:38.217Z,100562.88
2024-03-15T15:06:11.812Z,100563.25
2024-03-15T15:08:46.024Z,100556.59
2024-03-15T15:11:19.123Z,100561.00
2024-03-15T15:13:53.280Z,100565.44
2024-03-15T15:16:28.051Z,100564.22
2024-03-15T15:19:01.449Z,100567.44
2024-03-15T15:21:35.033Z,100562.94
2024-03-15T15:24:08.070Z,100556.13
2024-03-15T15:26:41.059Z,100559.25
2024-03-15T15:29:14.173Z,100564.47
2024-03-15T15:31:47.270Z,100565.56
2024-03-15T15:34:21.781Z,100566.75
2024-03-15T15:36:54.968Z,100565.00
2024-03-15T15:39:27.779Z,100562.25
2024-03-15T15:42:01.620Z,100557.84
2024-03-15T15:44:34.777Z,100560.41
2024-03-15T15:47:08.755Z,100559.56
2024-03-15T15:49:44.425Z,100561.16
2024-03-15T15:52:17.569Z,100565.75
2024-03-15T15:54:50.600Z,100566.81
2024-03-15T15:57:24.650Z,100568.81
2024-03-15T15:59:57.734Z,100565.47
2024-03-15T16:02:30.688Z,100574.81
2024-03-15T16:05:03.884Z,100568.31
2024-03-15T16:07:37.291Z,100572.44
2024-03-15T16:10:12.569Z,100583.03
2024-03-15T16:12:46.288Z,100567.69
2024-03-15T16:15:19.674Z,100583.28
2024-03-15T16:17:53.289Z,100577.66
2024-03-15T16:20:29.087Z,100580.84
2024-03-15T16:23:03.204Z,100585.97
2024-03-15T16:25:36.193Z,100576.09
2024-03-15T16:28:09.812Z,100586.72
2024-03-15T16:30:42.950Z,100579.81
2024-03-15T16:33:16.459Z,100578.84
2024-03-15T16:35:49.733Z,100581.09
2024-03-15T16:38:22.881Z,100590.59
2024-03-15T16:40:55.837Z,100578.53
2024-03-15T16:43:28.717Z,100595.56
2024-03-15T16:46:01.730Z,100589.38
2024-03-15T16:48:34.937Z,100589.13
2024-03-15T16:51:08.732Z,100599.16
2024-03-15T16:53:42.023Z,100602.47
2024-03-15T16:56:15.081Z,100603.84
2024-03-15T16:58:49.434Z,100610.59
2024-03-15T17:01:23.069Z,100609.63
2024-03-15T17:03:57.090Z,100606.63
2024-03-15T17:06:30.388Z,100619.47
2024-03-15T17:09:04.774Z,100600.59
2024-03-15T17:11:38.474Z,100615.34
2024-03-15T17:14:11.792Z,100611.75
2024-03-15T17:16:44.854Z,100611.75
2024-03-15T17:19:18.545Z,100614.44
2024-03-15T17:21:51.681Z,100627.59
2024-03-15T17:24:26.043Z,100620.03
2024-03-15T17:26:59.651Z,100626.91
2024-03-15T17:29:33.501Z,100622.91
2024-03-15T17:32:06.584Z,100634.38
2024-03-15T17:34:40.122Z,100625.13
2024-03-15T17:37:13.692Z,100632.72
2024-03-15T17:39:48.344Z,100637.38
2024-03-15T17:42:21.664Z,100636.50
2024-03-15T17:44:54.684Z,100639.41
2024-03-15T17:47:27.737Z,100637.97
2024-03-15T17:50:00.773Z,100640.94
2024-03-15T17:52:33.966Z,100637.47
2024-03-15T17:55:09.739Z,100649.84
2024-03-15T17:57:42.920Z,100655.84
2024-03-15T18:00:17.048Z,100648.59
2024-03-15T18:02:50.643Z,100651.94
2024-03-15T18:05:23.987Z,100645.13
2024-03-15T18:07:57.005Z,100655.13
2024-03-15T18:10:30.806Z,100655.91
2024-03-15T18:13:03.865Z,100657.06
2024-03-15T18:15:39.035Z,100657.38
2024-03-15T18:18:12.873Z,100658.72
2024-03-15T18:20:48.155Z,100653.03
2024-03-15T18:23:21.236Z,100657.13
2024-03-15T18:25:54.251Z,100669.75
2024-03-15T18:28:27.266Z,100669.06
2024-03-15T18:31:00.531Z,100673.31
2024-03-15T18:33:33.611Z,100670.97
2024-03-15T18:36:06.939Z,100674.81
2024-03-15T18:38:39.869Z,100669.91
2024-03-15T18:41:13.196Z,100674.56
2024-03-15T18:43:46.242Z,100683.91
2024-03-15T18:46:19.226Z,100673.69
2024-03-15T18:48:51.992Z,100673.69
2024-03-15T18:51:25.043Z,100680.41
2024-03-15T18:53:58.295Z,100672.16
2024-03-15T18:56:33.084Z,100681.38
2024-03-15T18:59:07.926Z,100678.25
2024-03-15T19:01:41.065Z,100686.25
2024-03-15T19:04:14.093Z,100680.88
2024-03-15T19:06:46.912Z,100685.56
2024-03-15T19:09:21.421Z,100685.00
2024-03-15T19:11:54.463Z,100693.72
2024-03-15T19:14:29.951Z,100694.50
2024-03-15T19:17:03.004Z,100688.75
2024-03-15T19:19:36.539Z,100693.56
2024-03-15T19:22:09.632Z,100697.38
2024-03-15T19:24:43.502Z,100693.66
2024-03-15T19:27:16.553Z,100697.38
2024-03-15T19:29:51.694Z,100698.94
2024-03-15T19:32:28.502Z,100697.47
2024-03-15T19:35:01.842Z,100700.53
2024-03-15T19:37:35.551Z,100704.94
2024-03-15T19:40:10.358Z,100705.63
2024-03-15T19:42:44.657Z,100715.28
2024-03-15T19:45:18.915Z,100709.03
2024-03-15T19:47:52.019Z,100717.09
2024-03-15T19:50:25.677Z,100707.66
2024-03-15T19:52:58.692Z,100710.22
2024-03-15T19:55:33.028Z,100708.59
2024-03-15T19:58:07.191Z,100709.63
2024-03-15T20:00:40.290Z,100709.13
2024-03-15T20:03:13.379Z,100713.09
2024-03-15T20:05:47.281Z,100707.34
2024-03-15T20:08:20.381Z,100709.66
2024-03-15T20:10:53.456Z,100697.22
2024-03-15T20:13:26.534Z,100700.06
2024-03-15T20:15:59.634Z,100715.06
2024-03-15T20:18:33.197Z,100712.28
2024-03-15T20:21:06.501Z,100711.19
2024-03-15T20:23:40.058Z,100707.09
2024-03-15T20:26:13.163Z,100709.13
2024-03-15T20:28:46.074Z,100708.19
2024-03-15T20:31:19.034Z,100705.78
2024-03-15T20:33:52.240Z,100714.53
2024-03-15T20:36:25.560Z,100715.06
2024-03-15T20:39:01.136Z,100716.19
2024-03-15T20:41:34.243Z,100720.66
2024-03-15T20:44:07.473Z,100712.44
2024-03-15T20:46:40.577Z,100708.88
2024-03-15T20:49:16.930Z,100723.19
2024-03-15T20:51:50.437Z,100727.94
2024-03-15T20:54:23.253Z,100720.47
2024-03-15T20:56:56.352Z,100731.81
2024-03-15T20:59:30.027Z,100731.44
2024-03-15T21:02:09.729Z,100728.34
2024-03-15T21:04:45.715Z,100730.56
2024-03-15T21:07:20.514Z,100740.91
2024-03-15T21:09:53.612Z,100735.78
2024-03-15T21:12:29.876Z,100744.66
2024-03-15T21:15:04.417Z,100741.97
2024-03-15T21:17:38.373Z,100749.09
2024-03-15T21:20:16.651Z,100748.16
2024-03-15T21:22:51.126Z,100745.13
2024-03-15T21:25:29.873Z,100750.94
2024-03-15T21:28:05.530Z,100746.19
2024-03-15T21:30:38.950Z,100743.69
2024-03-15T21:33:12.208Z,100749.59
2024-03-15T21:35:49.011Z,100755.44
2024-03-15T21:38:22.082Z,100753.72
2024-03-15T21:40:59.096Z,100746.84
2024-03-15T21:43:32.247Z,100762.88
2024-03-15T21:46:06.203Z,100759.13
2024-03-15T21:48:39.950Z,100772.03
2024-03-15T21:51:13.545Z,100762.63
2024-03-15T21:53:47.286Z,100772.22
2024-03-15T21:56:21.548Z,100777.88
2024-03-15T21:58:56.014Z,100778.44
2024-03-15T22:01:31.242Z,100774.44
2024-03-15T22:04:06.408Z,100775.94
2024-03-15T22:06:42.557Z,100781.06
2024-03-15T22:09:20.058Z,100780.47
2024-03-15T22:11:54.081Z,100778.72
2024-03-15T22:14:27.276Z,100767.75
2024-03-15T22:17:00.293Z,100773.66
2024-03-15T22:19:33.935Z,100765.53
2024-03-15T22:22:07.254Z,100781.66
2024-03-15T22:24:42.392Z,100781.66
2024-03-15T22:27:16.308Z,100790.91
2024-03-15T22:29:49.310Z,100791.47
2024-03-15T22:32:22.568Z,100793.59
2024-03-15T22:34:55.490Z,100789.59
2024-03-15T22:37:28.195Z,100795.38
2024-03-15T22:40:01.233Z,100796.84
2024-03-15T22:42:34.422Z,100792.63
2024-03-15T22:45:07.651Z,100796.66
2024-03-15T22:47:40.697Z,100795.00
2024-03-15T22:50:14.867Z,100797.63
2024-03-15T22:52:48.792Z,100799.84
2024-03-15T22:55:21.776Z,100801.88
2024-03-15T22:57:55.058Z,100800.78
2024-03-15T23:00:32.483Z,100803.41
2024-03-15T23:03:07.653Z,100811.28
2024-03-15T23:05:40.649Z,100808.94
2024-03-15T23:08:15.341Z,100813.78
2024-03-15T23:10:48.464Z,100818.84
2024-03-15T23:13:21.558Z,100811.13
2024-03-15T23:15:55.800Z,100814.59
2024-03-15T23:18:29.144Z,100814.94
2024-03-15T23:21:03.180Z,100819.91
2024-03-15T23:23:38.505Z,100821.25
2024-03-15T23:26:11.546Z,100839.06
2024-03-15T23:28:44.834Z,100828.19
2024-03-15T23:31:18.108Z,100841.66
2024-03-15T23:33:51.128Z,100844.13
2024-03-15T23:36:24.749Z,100844.59
2024-03-15T23:38:57.879Z,100840.91
2024-03-15T23:41:33.519Z,100855.22
2024-03-15T23:44:06.955Z,100856.00
2024-03-15T23:46:41.127Z,100853.09
2024-03-15T23:49:14.565Z,100861.25
2024-03-15T23:51:47.634Z,100868.25
2024-03-15T23:54:21.215Z,100870.81
2024-03-15T23:56:55.095Z,100868.03
2024-03-15T23:59:29.098Z,100870.75
